createdAt,value
2019-06-26T00:01:07.558Z,15.57
2019-06-26T00:03:38.733Z,14.80
2019-06-26T00:06:10.027Z,13.93
2019-06-26T00:08:41.207Z,14.80
2019-06-26T00:11:12.450Z,15.07
2019-06-26T00:13:43.535Z,15.40
2019-06-26T00:16:14.813Z,15.10
2019-06-26T00:18:45.898Z,15.93
2019-06-26T00:21:17.261Z,15.77
2019-06-26T00:23:48.418Z,16.90
2019-06-26T00:26:19.533Z,16.60
2019-06-26T00:28:50.638Z,15.37
2019-06-26T00:31:21.731Z,16.07
2019-06-26T00:33:52.994Z,17.23
2019-06-26T00:36:24.228Z,16.33
2019-06-26T00:38:55.394Z,16.40
2019-06-26T00:41:26.598Z,16.77
2019-06-26T00:43:57.744Z,17.67
2019-06-26T00:46:28.907Z,16.50
2019-06-26T00:49:00.141Z,16.50
2019-06-26T00:51:31.329Z,16.60
2019-06-26T00:54:02.578Z,15.10
2019-06-26T00:56:33.776Z,17.07
2019-06-26T00:59:05.125Z,16.30
2019-06-26T01:01:36.297Z,14.83
2019-06-26T01:04:13.352Z,15.10
2019-06-26T01:06:44.433Z,16.50
2019-06-26T01:09:16.301Z,15.77
2019-06-26T01:11:47.370Z,15.30
2019-06-26T01:14:19.650Z,14.30
2019-06-26T01:16:50.828Z,14.10
2019-06-26T01:19:22.053Z,13.27
2019-06-26T01:21:53.303Z,13.73
2019-06-26T01:24:24.519Z,13.47
2019-06-26T01:26:55.801Z,13.40
2019-06-26T01:29:26.890Z,14.23
2019-06-26T01:31:57.969Z,14.57
2019-06-26T01:34:29.109Z,14.03
2019-06-26T01:37:00.281Z,13.33
2019-06-26T01:39:31.364Z,14.10
2019-06-26T01:42:02.648Z,14.33
2019-06-26T01:44:33.919Z,13.80
2019-06-26T01:47:05.545Z,13.23
2019-06-26T01:49:37.770Z,13.67
2019-06-26T01:52:09.057Z,14.70
2019-06-26T01:54:40.260Z,12.70
2019-06-26T01:57:11.490Z,13.50
2019-06-26T01:59:42.688Z,11.77
2019-06-26T02:02:13.905Z,13.97
2019-06-26T02:04:45.045Z,13.40
2019-06-26T02:07:16.347Z,13.87
2019-06-26T02:09:47.577Z,14.30
2019-06-26T02:12:18.657Z,12.97
2019-06-26T02:14:49.851Z,15.50
2019-06-26T02:17:21.066Z,14.90
2019-06-26T02:19:52.118Z,14.37
2019-06-26T02:22:23.351Z,14.20
2019-06-26T02:24:54.566Z,15.67
2019-06-26T02:27:25.846Z,13.30
2019-06-26T02:29:56.933Z,15.17
2019-06-26T02:32:28.120Z,15.80
2019-06-26T02:35:00.353Z,14.90
2019-06-26T02:37:31.691Z,13.97
2019-06-26T02:40:02.891Z,14.13
2019-06-26T02:42:34.348Z,14.50
2019-06-26T02:45:07.311Z,16.00
2019-06-26T02:47:45.371Z,15.60
2019-06-26T02:50:16.606Z,15.40
2019-06-26T02:52:47.677Z,15.70
2019-06-26T02:55:18.882Z,14.00
2019-06-26T02:57:50.048Z,15.37
2019-06-26T03:00:21.249Z,14.50
2019-06-26T03:02:52.417Z,14.50
2019-06-26T03:05:23.481Z,13.40
2019-06-26T03:07:54.751Z,14.57
2019-06-26T03:10:26.053Z,16.10
2019-06-26T03:12:57.342Z,13.83
2019-06-26T03:15:28.602Z,13.53
2019-06-26T03:17:59.747Z,13.67
2019-06-26T03:20:35.912Z,15.80
2019-06-26T03:23:07.131Z,13.37
2019-06-26T03:25:38.182Z,13.63
2019-06-26T03:28:09.412Z,14.47
2019-06-26T03:30:40.575Z,13.43
2019-06-26T03:33:11.791Z,13.20
2019-06-26T03:35:42.863Z,14.00
2019-06-26T03:38:14.031Z,15.50
2019-06-26T03:40:45.258Z,13.40
2019-06-26T03:43:16.474Z,12.50
2019-06-26T03:45:47.845Z,14.40
2019-06-26T03:48:19.154Z,13.23
2019-06-26T03:50:50.293Z,11.57
2019-06-26T03:53:21.381Z,11.73
2019-06-26T03:55:52.519Z,12.20
2019-06-26T03:58:23.670Z,11.30
2019-06-26T04:00:54.760Z,10.97
2019-06-26T04:03:25.941Z,11.40
2019-06-26T04:05:57.276Z,10.60
2019-06-26T04:08:28.435Z,10.70
2019-06-26T04:10:59.578Z,9.90
2019-06-26T04:13:31.030Z,9.67
2019-06-26T04:16:02.260Z,9.10
2019-06-26T04:18:33.338Z,9.93
2019-06-26T04:21:04.508Z,8.80
2019-06-26T04:23:35.712Z,10.20
2019-06-26T04:26:06.927Z,9.20
2019-06-26T04:28:38.090Z,8.90
2019-06-26T04:31:09.320Z,9.37
2019-06-26T04:33:40.382Z,8.30
2019-06-26T04:36:11.459Z,8.73
2019-06-26T04:38:42.513Z,8.33
2019-06-26T04:41:13.797Z,8.70
2019-06-26T04:43:44.890Z,8.13
2019-06-26T04:46:16.033Z,9.13
2019-06-26T04:48:47.153Z,8.20
2019-06-26T04:51:18.258Z,8.80
2019-06-26T04:53:49.399Z,8.23
2019-06-26T04:56:20.554Z,8.30
2019-06-26T04:58:51.771Z,7.67
2019-06-26T05:01:23.008Z,9.20
2019-06-26T05:03:54.077Z,7.57
2019-06-26T05:06:25.237Z,7.53
2019-06-26T05:08:56.452Z,8.63
2019-06-26T05:11:27.666Z,7.40
2019-06-26T05:13:58.746Z,8.40
2019-06-26T05:16:29.913Z,8.37
2019-06-26T05:19:00.970Z,8.43
2019-06-26T05:21:33.284Z,7.27
2019-06-26T05:24:04.348Z,8.50
2019-06-26T05:26:35.605Z,9.20
2019-06-26T05:29:07.054Z,8.10
2019-06-26T05:31:38.288Z,8.40
2019-06-26T05:34:11.104Z,8.90
2019-06-26T05:36:42.582Z,8.80
2019-06-26T05:39:13.688Z,8.37
2019-06-26T05:41:44.903Z,8.13
2019-06-26T05:44:16.030Z,6.73
2019-06-26T05:46:47.096Z,6.97
2019-06-26T05:49:18.257Z,6.87
2019-06-26T05:51:49.420Z,6.70
2019-06-26T05:54:20.550Z,7.30
2019-06-26T05:56:51.791Z,7.57
2019-06-26T05:59:23.079Z,7.40
2019-06-26T06:01:54.497Z,7.80
2019-06-26T06:04:25.757Z,7.73
2019-06-26T06:06:56.969Z,8.77
2019-06-26T06:09:28.249Z,8.30
2019-06-26T06:11:59.415Z,7.87
2019-06-26T06:14:30.624Z,7.90
2019-06-26T06:17:02.858Z,8.10
2019-06-26T06:19:33.905Z,7.67
2019-06-26T06:22:05.071Z,7.20
2019-06-26T06:24:36.121Z,6.93
2019-06-26T06:27:10.851Z,5.97
2019-06-26T06:29:42.067Z,6.67
2019-06-26T06:32:13.429Z,6.13
2019-06-26T06:34:44.535Z,5.57
2019-06-26T06:37:16.699Z,5.47
2019-06-26T06:39:47.839Z,5.57
2019-06-26T06:42:18.963Z,5.30
2019-06-26T06:44:50.020Z,5.40
2019-06-26T06:47:25.184Z,5.23
2019-06-26T06:49:56.221Z,5.50
2019-06-26T06:52:27.305Z,5.33
2019-06-26T06:54:58.345Z,5.13
2019-06-26T06:57:29.433Z,5.50
2019-06-26T07:00:00.879Z,5.60
2019-06-26T07:02:33.738Z,6.00
2019-06-26T07:05:06.549Z,5.80
2019-06-26T07:07:37.779Z,5.00
2019-06-26T07:10:09.555Z,4.80
2019-06-26T07:12:40.768Z,5.45
2019-06-26T07:15:13.602Z,5.78
2019-06-26T07:17:44.657Z,7.05
2019-06-26T07:20:16.209Z,6.33
2019-06-26T07:22:47.333Z,6.40
2019-06-26T07:25:18.900Z,6.90
2019-06-26T07:27:50.042Z,6.00
2019-06-26T07:30:22.078Z,7.17
2019-06-26T07:32:53.475Z,6.67
2019-06-26T07:35:24.497Z,6.77
2019-06-26T07:37:55.592Z,6.80
2019-06-26T07:40:26.711Z,6.43
2019-06-26T07:42:58.846Z,6.63
2019-06-26T07:45:29.891Z,6.90
2019-06-26T07:48:00.940Z,6.47
2019-06-26T07:50:32.701Z,6.60
2019-06-26T07:53:04.886Z,6.80
2019-06-26T07:55:35.960Z,7.70
2019-06-26T07:58:07.171Z,7.50
2019-06-26T08:00:38.206Z,8.37
2019-06-26T08:03:09.346Z,7.37
2019-06-26T08:05:42.869Z,8.43
2019-06-26T08:08:14.766Z,7.87
2019-06-26T08:10:46.055Z,8.03
2019-06-26T08:13:17.147Z,8.53
2019-06-26T08:15:48.272Z,7.87
2019-06-26T08:18:19.356Z,8.67
2019-06-26T08:21:07.474Z,7.90
2019-06-26T08:23:23.359Z,8.63
2019-06-26T08:25:54.392Z,10.13
2019-06-26T08:28:26.609Z,9.30
2019-06-26T08:30:57.712Z,8.00
2019-06-26T08:33:28.934Z,8.90
2019-06-26T08:36:00.120Z,9.10
2019-06-26T08:38:31.258Z,8.40
2019-06-26T08:41:02.405Z,9.17
2019-06-26T08:43:33.845Z,9.40
2019-06-26T08:46:05.050Z,8.80
2019-06-26T08:48:40.214Z,8.53
2019-06-26T08:51:08.851Z,9.03
2019-06-26T08:53:39.944Z,8.33
2019-06-26T08:56:10.978Z,8.40
2019-06-26T08:58:42.346Z,8.43
2019-06-26T09:01:14.200Z,7.73
2019-06-26T09:03:45.369Z,8.37
2019-06-26T09:06:16.492Z,8.30
2019-06-26T09:08:47.610Z,9.03
2019-06-26T09:11:18.652Z,8.27
2019-06-26T09:13:49.735Z,9.03
2019-06-26T09:16:20.814Z,9.10
2019-06-26T09:18:51.930Z,9.27
2019-06-26T09:21:23.045Z,9.03
2019-06-26T09:23:54.118Z,9.17
2019-06-26T09:26:25.265Z,9.07
2019-06-26T09:28:56.346Z,8.87
2019-06-26T09:31:27.386Z,8.97
2019-06-26T09:33:58.477Z,9.40
2019-06-26T09:36:29.494Z,7.93
2019-06-26T09:39:00.577Z,7.77
2019-06-26T09:41:33.472Z,7.97
2019-06-26T09:44:04.647Z,7.33
2019-06-26T09:46:35.828Z,7.53
2019-06-26T09:49:07.086Z,8.03
2019-06-26T09:51:38.110Z,8.00
2019-06-26T09:54:10.135Z,8.13
2019-06-26T09:56:41.188Z,8.17
2019-06-26T09:59:12.246Z,7.63
2019-06-26T10:01:43.363Z,7.10
2019-06-26T10:04:14.555Z,7.53
2019-06-26T10:06:45.646Z,6.97
2019-06-26T10:09:16.804Z,8.10
2019-06-26T10:11:47.849Z,7.40
2019-06-26T10:14:19.087Z,8.20
2019-06-26T10:16:50.266Z,7.77
2019-06-26T10:19:21.815Z,8.93
2019-06-26T10:21:53.177Z,7.90
2019-06-26T10:24:24.444Z,9.17
2019-06-26T10:26:55.662Z,7.30
2019-06-26T10:29:26.700Z,7.80
2019-06-26T10:31:57.750Z,7.90
2019-06-26T10:34:28.827Z,8.90
2019-06-26T10:37:01.037Z,7.63
2019-06-26T10:39:32.182Z,8.17
2019-06-26T10:42:03.347Z,9.10
2019-06-26T10:44:34.686Z,8.30
2019-06-26T10:47:06.024Z,8.50
2019-06-26T10:49:37.335Z,7.93
2019-06-26T10:52:08.619Z,8.23
2019-06-26T10:54:39.724Z,8.73
2019-06-26T10:57:10.970Z,7.97
2019-06-26T10:59:42.150Z,8.63
2019-06-26T11:02:16.721Z,7.90
2019-06-26T11:04:46.088Z,8.87
2019-06-26T11:07:17.251Z,7.67
2019-06-26T11:09:48.317Z,8.47
2019-06-26T11:12:19.384Z,8.20
2019-06-26T11:14:50.466Z,7.87
2019-06-26T11:17:21.674Z,8.10
2019-06-26T11:19:55.438Z,8.27
2019-06-26T11:22:25.627Z,8.00
2019-06-26T11:24:56.808Z,8.43
2019-06-26T11:27:27.950Z,8.80
2019-06-26T11:29:59.159Z,7.77
2019-06-26T11:32:30.599Z,8.60
2019-06-26T11:35:01.768Z,8.47
2019-06-26T11:37:32.876Z,9.20
2019-06-26T11:40:04.153Z,8.97
2019-06-26T11:42:35.279Z,9.53
2019-06-26T11:45:07.449Z,9.40
2019-06-26T11:47:38.614Z,8.10
2019-06-26T11:50:12.483Z,8.20
2019-06-26T11:52:43.633Z,8.93
2019-06-26T11:55:16.151Z,9.10
2019-06-26T11:57:47.386Z,9.00
2019-06-26T12:00:19.499Z,9.10
2019-06-26T12:02:50.779Z,9.90
2019-06-26T12:05:22.270Z,8.73
2019-06-26T12:07:53.387Z,9.93
2019-06-26T12:10:24.600Z,9.33
2019-06-26T12:12:55.879Z,9.93
2019-06-26T12:15:28.245Z,9.00
2019-06-26T12:17:59.431Z,8.90
2019-06-26T12:20:30.568Z,8.87
2019-06-26T12:23:01.670Z,8.73
2019-06-26T12:25:32.764Z,10.23
2019-06-26T12:28:03.880Z,9.80
2019-06-26T12:30:35.046Z,9.23
2019-06-26T12:33:06.230Z,8.90
2019-06-26T12:35:37.393Z,8.63
2019-06-26T12:38:08.526Z,8.83
2019-06-26T12:40:39.596Z,9.27
2019-06-26T12:43:10.655Z,9.00
2019-06-26T12:45:41.818Z,8.60
2019-06-26T12:48:16.154Z,8.43
2019-06-26T12:50:45.965Z,8.43
2019-06-26T12:53:17.011Z,8.67
2019-06-26T12:55:48.102Z,9.10
2019-06-26T12:58:20.151Z,9.43
2019-06-26T13:00:51.512Z,8.70
2019-06-26T13:03:22.735Z,9.07
2019-06-26T13:05:53.792Z,8.80
2019-06-26T13:08:24.947Z,8.63
2019-06-26T13:10:56.150Z,8.93
2019-06-26T13:13:27.199Z,9.07
2019-06-26T13:15:58.315Z,8.67
2019-06-26T13:18:29.376Z,8.33
2019-06-26T13:21:00.596Z,9.07
2019-06-26T13:23:31.733Z,8.00
2019-06-26T13:26:03.977Z,8.27
2019-06-26T13:28:35.087Z,8.10
2019-06-26T13:31:07.254Z,7.90
2019-06-26T13:33:38.694Z,7.57
2019-06-26T13:36:09.849Z,8.40
2019-06-26T13:38:40.903Z,9.50
2019-06-26T13:41:12.111Z,8.37
2019-06-26T13:43:43.273Z,9.00
2019-06-26T13:46:14.445Z,8.63
2019-06-26T13:48:46.046Z,8.47
2019-06-26T13:51:17.227Z,8.90
2019-06-26T13:53:48.352Z,8.13
2019-06-26T13:56:19.420Z,8.90
2019-06-26T13:58:51.481Z,8.90
2019-06-26T14:01:23.314Z,8.70
2019-06-26T14:03:54.411Z,8.60
2019-06-26T14:06:25.637Z,8.50
2019-06-26T14:08:56.794Z,8.70
2019-06-26T14:11:28.120Z,9.03
2019-06-26T14:13:59.186Z,8.80
2019-06-26T14:16:30.288Z,8.23
2019-06-26T14:19:02.421Z,9.17
2019-06-26T14:21:33.677Z,8.57
2019-06-26T14:24:04.877Z,9.07
2019-06-26T14:26:35.996Z,8.50
2019-06-26T14:29:20.390Z,8.03
2019-06-26T14:31:40.354Z,7.53
2019-06-26T14:34:11.419Z,7.93
2019-06-26T14:36:42.650Z,7.63
2019-06-26T14:39:13.694Z,7.87
2019-06-26T14:41:44.790Z,8.00
2019-06-26T14:44:15.837Z,7.83
2019-06-26T14:46:46.923Z,7.90
2019-06-26T14:49:18.050Z,8.50
2019-06-26T14:51:49.326Z,7.77
2019-06-26T14:54:20.373Z,8.60
2019-06-26T14:56:51.513Z,8.20
2019-06-26T14:59:22.707Z,8.10
2019-06-26T15:01:53.895Z,7.53
2019-06-26T15:04:25.020Z,7.23
2019-06-26T15:06:56.117Z,8.23
2019-06-26T15:09:27.228Z,7.93
2019-06-26T15:11:58.591Z,7.90
2019-06-26T15:14:29.647Z,7.97
2019-06-26T15:17:00.795Z,8.40
2019-06-26T15:19:31.954Z,8.00
2019-06-26T15:22:03.022Z,7.60
2019-06-26T15:24:34.060Z,8.27
2019-06-26T15:27:05.240Z,8.00
2019-06-26T15:29:36.309Z,7.00
2019-06-26T15:32:07.443Z,7.00
2019-06-26T15:34:38.515Z,7.00
2019-06-26T15:37:09.571Z,7.27
2019-06-26T15:39:40.723Z,7.47
2019-06-26T15:42:11.914Z,7.63
2019-06-26T15:44:43.070Z,7.90
2019-06-26T15:47:14.257Z,7.23
2019-06-26T15:49:46.441Z,7.40
2019-06-26T15:52:17.753Z,7.97
2019-06-26T15:54:48.902Z,8.10
2019-06-26T15:57:19.980Z,7.60
2019-06-26T15:59:51.049Z,7.93
2019-06-26T16:02:22.129Z,7.50
2019-06-26T16:04:53.225Z,7.67
2019-06-26T16:07:24.286Z,7.83
2019-06-26T16:09:55.343Z,6.90
2019-06-26T16:12:26.451Z,7.30
2019-06-26T16:14:57.687Z,8.33
2019-06-26T16:17:35.818Z,7.90
2019-06-26T16:20:07.693Z,7.50
2019-06-26T16:22:39.348Z,8.17
2019-06-26T16:25:14.446Z,7.60
2019-06-26T16:27:44.968Z,7.70
2019-06-26T16:30:16.760Z,7.50
2019-06-26T16:32:47.862Z,7.70
2019-06-26T16:35:19.130Z,7.60
2019-06-26T16:37:50.306Z,7.40
2019-06-26T16:40:21.718Z,7.33
2019-06-26T16:42:52.854Z,8.93
2019-06-26T16:45:24.372Z,7.60
2019-06-26T16:47:55.628Z,7.30
2019-06-26T16:50:27.048Z,7.03
2019-06-26T16:52:58.067Z,8.20
2019-06-26T16:55:29.210Z,8.13
2019-06-26T16:58:01.638Z,7.97
2019-06-26T17:00:33.011Z,7.80
2019-06-26T17:03:04.551Z,7.60
2019-06-26T17:05:35.942Z,7.67
2019-06-26T17:08:09.084Z,7.60
2019-06-26T17:10:40.380Z,7.90
2019-06-26T17:13:11.722Z,7.90
2019-06-26T17:15:42.782Z,7.30
2019-06-26T17:18:13.934Z,7.70
2019-06-26T17:20:45.153Z,7.80
2019-06-26T17:23:16.228Z,7.60
2019-06-26T17:25:47.402Z,8.47
2019-06-26T17:28:18.649Z,7.40
2019-06-26T17:30:52.746Z,7.80
2019-06-26T17:33:23.653Z,7.50
2019-06-26T17:35:54.691Z,7.70
2019-06-26T17:38:25.838Z,7.33
2019-06-26T17:40:59.431Z,6.67
2019-06-26T17:43:29.935Z,7.60
2019-06-26T17:46:01.007Z,8.73
2019-06-26T17:48:32.498Z,8.43
2019-06-26T17:51:03.669Z,7.97
2019-06-26T17:53:34.861Z,8.57
2019-06-26T17:56:06.311Z,8.00
2019-06-26T17:58:37.359Z,7.80
2019-06-26T18:01:08.409Z,7.73
2019-06-26T18:03:39.515Z,7.90
2019-06-26T18:06:10.669Z,8.13
2019-06-26T18:08:43.009Z,8.00
2019-06-26T18:11:14.056Z,7.53
2019-06-26T18:13:45.171Z,7.90
2019-06-26T18:16:17.381Z,7.83
2019-06-26T18:18:49.530Z,8.13
2019-06-26T18:21:20.617Z,7.30
2019-06-26T18:23:51.744Z,8.07
2019-06-26T18:26:22.893Z,8.30
2019-06-26T18:28:54.012Z,8.23
2019-06-26T18:31:25.136Z,8.87
2019-06-26T18:33:56.335Z,7.83
2019-06-26T18:36:27.633Z,8.23
2019-06-26T18:38:58.751Z,8.70
2019-06-26T18:41:29.950Z,8.97
2019-06-26T18:44:01.158Z,8.67
2019-06-26T18:46:32.209Z,8.80
2019-06-26T18:49:03.342Z,9.30
2019-06-26T18:51:34.370Z,8.70
2019-06-26T18:54:05.842Z,9.33
2019-06-26T18:56:36.960Z,9.60
2019-06-26T18:59:08.065Z,9.63
2019-06-26T19:01:39.248Z,14.13
2019-06-26T19:04:11.510Z,12.47
2019-06-26T19:06:42.676Z,10.10
2019-06-26T19:09:13.842Z,10.20
2019-06-26T19:11:45.043Z,10.43
2019-06-26T19:14:16.257Z,9.90
2019-06-26T19:16:47.494Z,10.33
2019-06-26T19:19:18.596Z,10.73
2019-06-26T19:21:49.869Z,10.10
2019-06-26T19:24:20.941Z,9.57
2019-06-26T19:26:52.078Z,10.40
2019-06-26T19:29:23.176Z,9.30
2019-06-26T19:31:54.298Z,10.20
2019-06-26T19:34:25.918Z,9.83
2019-06-26T19:36:56.998Z,10.50
2019-06-26T19:39:28.332Z,10.70
2019-06-26T19:41:59.603Z,10.50
2019-06-26T19:44:30.716Z,10.00
2019-06-26T19:47:01.781Z,10.47
2019-06-26T19:49:33.219Z,9.70
2019-06-26T19:52:04.439Z,10.90
2019-06-26T19:54:39.222Z,10.90
2019-06-26T19:57:10.229Z,11.70
2019-06-26T19:59:41.387Z,12.17
2019-06-26T20:02:12.563Z,11.03
2019-06-26T20:04:43.805Z,12.37
2019-06-26T20:07:15.022Z,12.40
2019-06-26T20:09:46.471Z,12.13
2019-06-26T20:12:17.560Z,13.07
2019-06-26T20:14:48.650Z,12.33
2019-06-26T20:17:19.842Z,12.00
2019-06-26T20:19:50.920Z,11.93
2019-06-26T20:22:22.127Z,12.87
2019-06-26T20:24:57.284Z,12.97
2019-06-26T20:27:27.211Z,12.17
2019-06-26T20:29:58.380Z,13.03
2019-06-26T20:32:29.439Z,12.83
2019-06-26T20:35:00.522Z,11.33
2019-06-26T20:37:31.599Z,11.33
2019-06-26T20:40:02.831Z,12.73
2019-06-26T20:42:33.934Z,12.13
2019-06-26T20:45:05.213Z,11.83
2019-06-26T20:47:36.324Z,12.13
2019-06-26T20:50:08.210Z,14.23
2019-06-26T20:52:39.351Z,13.73
2019-06-26T20:55:10.538Z,13.50
2019-06-26T20:57:41.585Z,12.87
2019-06-26T21:00:13.134Z,13.00
2019-06-26T21:02:44.334Z,13.00
2019-06-26T21:05:15.882Z,13.20
2019-06-26T21:07:46.916Z,13.90
2019-06-26T21:10:18.148Z,13.07
2019-06-26T21:12:49.217Z,13.37
2019-06-26T21:15:21.531Z,13.70
2019-06-26T21:17:52.719Z,14.30
2019-06-26T21:20:23.828Z,14.27
2019-06-26T21:22:54.955Z,13.00
2019-06-26T21:25:26.105Z,15.00
2019-06-26T21:27:57.368Z,16.17
2019-06-26T21:30:28.488Z,14.97
2019-06-26T21:32:59.647Z,15.43
2019-06-26T21:35:31.908Z,13.90
2019-06-26T21:38:02.956Z,14.50
2019-06-26T21:40:34.020Z,15.03
2019-06-26T21:43:05.165Z,15.80
2019-06-26T21:45:36.285Z,14.30
2019-06-26T21:48:07.450Z,14.53
2019-06-26T21:50:38.677Z,14.63
2019-06-26T21:53:09.786Z,14.90
2019-06-26T21:55:43.109Z,16.00
2019-06-26T21:58:31.701Z,16.20
2019-06-26T22:01:20.759Z,15.70
2019-06-26T22:04:09.767Z,17.00
2019-06-26T22:06:48.143Z,16.50
2019-06-26T22:09:20.883Z,16.87
2019-06-26T22:11:52.078Z,17.13
2019-06-26T22:14:23.330Z,16.97
2019-06-26T22:16:54.713Z,16.77
2019-06-26T22:19:26.102Z,15.47
2019-06-26T22:21:57.244Z,16.30
2019-06-26T22:24:28.392Z,15.50
2019-06-26T22:26:59.585Z,16.30
2019-06-26T22:29:30.737Z,14.80
2019-06-26T22:32:01.959Z,14.40
2019-06-26T22:34:33.173Z,15.10
2019-06-26T22:37:04.791Z,14.40
2019-06-26T22:39:35.847Z,14.50
2019-06-26T22:42:10.073Z,14.87
2019-06-26T22:44:41.124Z,13.43
2019-06-26T22:47:12.280Z,13.03
2019-06-26T22:49:43.410Z,13.30
2019-06-26T22:52:14.532Z,13.37
2019-06-26T22:54:45.599Z,12.67
2019-06-26T22:57:16.657Z,13.20
2019-06-26T22:59:47.836Z,12.87
2019-06-26T23:02:19.007Z,12.83
2019-06-26T23:04:50.134Z,13.97
2019-06-26T23:07:21.245Z,13.27
2019-06-26T23:09:52.302Z,12.93
2019-06-26T23:12:23.384Z,13.30
2019-06-26T23:14:54.486Z,13.90
2019-06-26T23:17:25.735Z,14.77
2019-06-26T23:19:56.797Z,13.50
2019-06-26T23:22:28.052Z,13.10
2019-06-26T23:24:59.184Z,13.40
2019-06-26T23:27:30.433Z,12.27
2019-06-26T23:30:01.473Z,13.43
2019-06-26T23:32:33.723Z,13.80
2019-06-26T23:35:05.220Z,13.57
2019-06-26T23:37:36.298Z,12.60
2019-06-26T23:40:08.790Z,13.23
2019-06-26T23:42:39.961Z,13.20
2019-06-26T23:45:11.514Z,11.47
2019-06-26T23:47:42.628Z,12.77
2019-06-26T23:50:14.118Z,12.60
2019-06-26T23:52:45.328Z,13.03
2019-06-26T23:55:16.592Z,13.30
2019-06-26T23:57:59.003Z,13.00
